LIPX/VRN METAR and TAF weather

Enter ICAO airport designator
Station Type Date Time Source
LIPX METAR 2020/10/22 03:20 UTC NOAA

LIPX 220320Z 35002KT 0200 R04/0300N FG NSC 08/08 Q1023


Station Type Date Time Source
LIPX Decoded METAR 2020/10/22 03:20 UTC NOAA

Verona / Villafranca, Italy (LIPX) 45-23N 010-52E 68M
Oct 21, 2020 - 11:20 PM EDT / 2020.10.22 0320 UTC
Wind: from the N (350 degrees) at 2 MPH (2 KT):0
Visibility: less than 1 mile:0
Weather: fog
Temperature: 46 F (8 C)
Dew Point: 46 F (8 C)
Relative Humidity: 100%
Pressure (altimeter): 30.21 in. Hg (1023 hPa)
ob: LIPX 220320Z 35002KT 0200 R04/0300N FG NSC 08/08 Q1023
cycle: 3

Station Type Date Time Source
LIPX TAF 2014/04/22 15:24 UTC NOAA

TAF LIPX 221400Z 2215/2324 VRB05KT 9999 SCT030 SCT070
TEMPO 2215/2218 SCT025CB SCT080 PROB30
TEMPO 2215/2218 TS

Example: see airport list